createdAt,value
2022-09-10T00:02:12.337Z,19.57
2022-09-10T00:04:39.265Z,19.51
2022-09-10T00:07:06.153Z,19.48
2022-09-10T00:09:33.038Z,19.48
2022-09-10T00:11:59.899Z,19.47
2022-09-10T00:14:26.787Z,19.43
2022-09-10T00:16:54.829Z,19.40
2022-09-10T00:19:22.152Z,19.37
2022-09-10T00:21:50.670Z,19.34
2022-09-10T00:24:17.613Z,19.31
2022-09-10T00:26:45.667Z,19.32
2022-09-10T00:29:18.387Z,19.30
2022-09-10T00:31:45.445Z,19.29
2022-09-10T00:34:14.323Z,19.28
2022-09-10T00:36:43.902Z,19.26
2022-09-10T00:39:15.085Z,19.24
2022-09-10T00:41:44.632Z,19.24
2022-09-10T00:44:43.691Z,19.24
2022-09-10T00:47:22.367Z,19.24
2022-09-10T00:50:20.863Z,19.24
2022-09-10T00:52:49.565Z,19.26
2022-09-10T00:55:17.634Z,19.26
2022-09-10T00:57:47.661Z,19.27
2022-09-10T01:00:16.035Z,19.27
2022-09-10T01:02:43.254Z,19.27
2022-09-10T01:05:12.035Z,19.26
2022-09-10T01:07:39.897Z,19.25
2022-09-10T01:10:18.057Z,19.21
2022-09-10T01:13:03.415Z,19.24
2022-09-10T01:15:53.046Z,19.23
2022-09-10T01:19:02.351Z,19.20
2022-09-10T01:21:57.361Z,19.14
2022-09-10T01:25:00.685Z,19.11
2022-09-10T01:27:44.865Z,19.10
2022-09-10T01:30:25.056Z,19.09
2022-09-10T01:33:23.398Z,19.08
2022-09-10T01:36:01.778Z,19.08
2022-09-10T01:38:35.710Z,19.09
2022-09-10T01:41:04.572Z,19.07
2022-09-10T01:43:37.582Z,19.05
2022-09-10T01:46:21.458Z,19.03
2022-09-10T01:49:07.761Z,19.03
2022-09-10T01:51:40.394Z,19.01
2022-09-10T01:54:50.818Z,18.99
2022-09-10T01:57:52.928Z,18.97
2022-09-10T02:00:22.219Z,18.96
2022-09-10T02:03:01.691Z,18.91
2022-09-10T02:05:35.250Z,18.93
2022-09-10T02:08:13.943Z,18.90
2022-09-10T02:11:06.807Z,18.83
2022-09-10T02:13:36.830Z,18.77
2022-09-10T02:16:31.251Z,18.73
2022-09-10T02:19:00.683Z,18.72
2022-09-10T02:21:27.785Z,18.71
2022-09-10T02:24:05.966Z,18.70
2022-09-10T02:26:40.288Z,18.68
2022-09-10T02:29:08.716Z,18.66
2022-09-10T02:31:36.403Z,18.65
2022-09-10T02:34:03.580Z,18.65
2022-09-10T02:36:31.989Z,18.64
2022-09-10T02:39:00.433Z,18.63
2022-09-10T02:41:30.131Z,18.61
2022-09-10T02:43:57.551Z,18.60
2022-09-10T02:46:24.773Z,18.59
2022-09-10T02:48:55.212Z,18.57
2022-09-10T02:51:24.429Z,18.57
2022-09-10T02:53:51.823Z,18.56
2022-09-10T02:56:23.697Z,18.54
2022-09-10T02:58:51.062Z,18.53
2022-09-10T03:01:21.165Z,18.50
2022-09-10T03:03:58.162Z,18.47
2022-09-10T03:06:26.477Z,18.43
2022-09-10T03:08:57.654Z,18.40
2022-09-10T03:11:27.473Z,18.37
2022-09-10T03:13:55.785Z,18.34
2022-09-10T03:16:24.364Z,18.32
2022-09-10T03:18:52.258Z,18.31
2022-09-10T03:21:22.315Z,18.30
2022-09-10T03:23:51.245Z,18.26
2022-09-10T03:26:25.929Z,18.28
2022-09-10T03:28:54.077Z,18.26
2022-09-10T03:31:23.656Z,18.25
2022-09-10T03:33:51.449Z,18.23
2022-09-10T03:36:20.885Z,18.22
2022-09-10T03:38:49.408Z,18.20
2022-09-10T03:41:17.252Z,18.19
2022-09-10T03:43:44.970Z,18.19
2022-09-10T03:46:12.159Z,18.19
2022-09-10T03:48:43.605Z,18.18
2022-09-10T03:51:11.107Z,18.17
2022-09-10T03:53:39.239Z,18.15
2022-09-10T03:56:08.394Z,18.12
2022-09-10T03:58:35.877Z,18.10
2022-09-10T04:01:03.889Z,18.09
2022-09-10T04:03:33.367Z,18.06
2022-09-10T04:06:00.285Z,18.09
2022-09-10T04:08:27.225Z,18.09
2022-09-10T04:10:55.149Z,18.11
2022-09-10T04:13:23.048Z,18.12
2022-09-10T04:15:50.040Z,18.13
2022-09-10T04:18:17.125Z,18.16
2022-09-10T04:20:48.131Z,18.17
2022-09-10T04:23:16.430Z,18.18
2022-09-10T04:25:46.585Z,18.18
2022-09-10T04:28:13.672Z,18.17
2022-09-10T04:30:40.629Z,18.18
2022-09-10T04:33:09.469Z,18.19
2022-09-10T04:35:36.374Z,18.20
2022-09-10T04:38:07.150Z,18.20
2022-09-10T04:40:38.102Z,18.19
2022-09-10T04:43:05.031Z,18.19
2022-09-10T04:45:35.125Z,18.16
2022-09-10T04:48:06.722Z,18.19
2022-09-10T04:50:34.499Z,18.17
2022-09-10T04:53:12.256Z,18.12
2022-09-10T04:55:43.008Z,18.11
2022-09-10T04:58:10.652Z,18.08
2022-09-10T05:00:39.370Z,18.09
2022-09-10T05:03:07.187Z,18.07
2022-09-10T05:05:34.862Z,18.05
2022-09-10T05:08:08.140Z,17.97
2022-09-10T05:10:38.276Z,17.91
2022-09-10T05:13:07.264Z,17.92
2022-09-10T05:15:35.717Z,17.88
2022-09-10T05:18:04.538Z,17.86
2022-09-10T05:20:35.703Z,17.78
2022-09-10T05:23:02.616Z,17.82
2022-09-10T05:25:29.617Z,17.80
2022-09-10T05:27:58.374Z,17.86
2022-09-10T05:30:25.246Z,17.90
2022-09-10T05:32:53.271Z,17.92
2022-09-10T05:35:20.421Z,17.94
2022-09-10T05:37:48.639Z,17.98
2022-09-10T05:40:15.947Z,17.99
2022-09-10T05:42:44.234Z,17.95
2022-09-10T05:45:11.307Z,18.00
2022-09-10T05:47:38.266Z,18.03
2022-09-10T05:50:07.288Z,18.06
2022-09-10T05:52:35.127Z,18.07
2022-09-10T05:55:06.796Z,18.10
2022-09-10T05:57:33.680Z,18.08
2022-09-10T06:00:02.019Z,18.05
2022-09-10T06:02:30.546Z,18.01
2022-09-10T06:04:58.572Z,17.99
2022-09-10T06:07:28.212Z,18.03
2022-09-10T06:09:55.851Z,18.09
2022-09-10T06:12:35.410Z,18.23
2022-09-10T06:15:03.659Z,18.34
2022-09-10T06:17:30.591Z,18.47
2022-09-10T06:19:58.016Z,18.57
2022-09-10T06:22:25.075Z,18.67
2022-09-10T06:24:53.730Z,18.73
2022-09-10T06:27:23.227Z,18.79
2022-09-10T06:29:51.276Z,18.90
2022-09-10T06:32:18.259Z,18.98
2022-09-10T06:34:46.543Z,19.08
2022-09-10T06:37:13.440Z,19.14
2022-09-10T06:39:40.970Z,19.21
2022-09-10T06:42:08.131Z,19.31
2022-09-10T06:44:54.800Z,19.36
2022-09-10T06:48:25.456Z,19.49
2022-09-10T06:50:21.443Z,19.54
2022-09-10T06:52:50.220Z,19.55
2022-09-10T06:55:20.652Z,19.51
2022-09-10T06:57:47.617Z,19.54
2022-09-10T07:00:17.451Z,19.56
2022-09-10T07:02:50.452Z,19.63
2022-09-10T07:05:17.754Z,19.73
2022-09-10T07:07:46.356Z,19.81
2022-09-10T07:10:14.406Z,19.79
2022-09-10T07:12:41.913Z,19.80
2022-09-10T07:15:09.638Z,19.85
2022-09-10T07:17:37.015Z,19.94
2022-09-10T07:20:04.631Z,20.05
2022-09-10T07:22:43.712Z,20.15
2022-09-10T07:25:12.817Z,20.24
2022-09-10T07:27:57.957Z,20.33
2022-09-10T07:30:25.640Z,20.40
2022-09-10T07:32:52.804Z,20.52
2022-09-10T07:35:25.467Z,20.61
2022-09-10T07:37:54.264Z,20.70
2022-09-10T07:40:23.403Z,20.75
2022-09-10T07:42:52.450Z,20.80
2022-09-10T07:45:19.760Z,20.82
2022-09-10T07:47:48.618Z,20.84
2022-09-10T07:50:16.483Z,20.90
2022-09-10T07:52:44.475Z,21.01
2022-09-10T07:55:11.517Z,21.11
2022-09-10T07:57:40.535Z,21.21
2022-09-10T08:00:16.705Z,21.29
2022-09-10T08:02:46.976Z,21.30
2022-09-10T08:05:18.552Z,21.38
2022-09-10T08:07:46.608Z,21.44
2022-09-10T08:10:13.553Z,21.50
2022-09-10T08:12:41.975Z,21.52
2022-09-10T08:15:10.809Z,21.56
2022-09-10T08:17:40.051Z,21.61
2022-09-10T08:20:09.850Z,21.74
2022-09-10T08:22:38.633Z,21.83
2022-09-10T08:25:06.343Z,21.91
2022-09-10T08:27:35.134Z,21.97
2022-09-10T08:30:05.668Z,22.04
2022-09-10T08:32:35.834Z,22.03
2022-09-10T08:35:04.945Z,22.05
2022-09-10T08:37:33.378Z,22.11
2022-09-10T08:40:00.364Z,22.19
2022-09-10T08:42:39.946Z,22.24
2022-09-10T08:45:17.424Z,22.32
2022-09-10T08:47:57.150Z,22.39
2022-09-10T08:50:49.707Z,22.47
2022-09-10T08:53:44.232Z,22.56
2022-09-10T08:56:21.494Z,22.65
2022-09-10T08:59:00.023Z,22.70
2022-09-10T09:01:45.768Z,22.74
2022-09-10T09:04:39.651Z,22.77
2022-09-10T09:07:15.812Z,22.79
2022-09-10T09:09:51.469Z,22.82
2022-09-10T09:12:36.177Z,22.91
2022-09-10T09:15:25.560Z,23.00
2022-09-10T09:18:15.460Z,23.07
2022-09-10T09:20:52.560Z,23.18
2022-09-10T09:23:23.619Z,23.24
2022-09-10T09:26:04.689Z,23.25
2022-09-10T09:28:49.409Z,23.30
2022-09-10T09:31:26.280Z,23.33
2022-09-10T09:34:05.891Z,23.38
2022-09-10T09:36:42.433Z,23.45
2022-09-10T09:39:42.642Z,23.49
2022-09-10T09:42:24.779Z,23.59
2022-09-10T09:45:32.425Z,23.70
2022-09-10T09:47:59.785Z,23.73
2022-09-10T09:50:30.032Z,23.70
2022-09-10T09:52:57.278Z,23.73
2022-09-10T09:55:38.872Z,23.76
2022-09-10T09:58:26.833Z,23.83
2022-09-10T10:01:09.740Z,23.94
2022-09-10T10:03:58.558Z,24.07
2022-09-10T10:06:34.671Z,24.16
2022-09-10T10:09:22.927Z,24.29
2022-09-10T10:11:58.293Z,24.40
2022-09-10T10:14:41.530Z,24.48
2022-09-10T10:17:30.220Z,24.59
2022-09-10T10:20:14.400Z,24.64
2022-09-10T10:22:44.069Z,24.77
2022-09-10T10:25:38.364Z,24.82
2022-09-10T10:28:31.871Z,24.89
2022-09-10T10:31:01.084Z,24.95
2022-09-10T10:33:31.515Z,25.05
2022-09-10T10:36:19.631Z,25.14
2022-09-10T10:39:47.605Z,25.24
2022-09-10T10:42:45.767Z,25.32
2022-09-10T10:45:45.963Z,25.38
2022-09-10T10:48:33.903Z,25.44
2022-09-10T10:51:15.040Z,25.50
2022-09-10T10:54:29.509Z,25.56
2022-09-10T10:57:30.495Z,25.60
2022-09-10T11:00:12.878Z,25.67
2022-09-10T11:03:15.924Z,25.76
2022-09-10T11:05:48.302Z,25.85
2022-09-10T11:08:29.996Z,25.93
2022-09-10T11:11:13.789Z,25.97
2022-09-10T11:14:25.208Z,26.06
2022-09-10T11:17:05.628Z,26.07
2022-09-10T11:19:43.093Z,26.11
2022-09-10T11:22:22.872Z,26.14
2022-09-10T11:25:00.504Z,26.16
2022-09-10T11:27:37.648Z,26.18
2022-09-10T11:30:10.563Z,26.15
2022-09-10T11:33:05.567Z,26.17
2022-09-10T11:35:44.607Z,26.20
2022-09-10T11:38:36.812Z,26.16
2022-09-10T11:41:22.306Z,25.98
2022-09-10T11:44:15.472Z,25.78
2022-09-10T11:46:58.204Z,25.66
2022-09-10T11:49:39.336Z,25.61
2022-09-10T11:52:06.217Z,25.63
2022-09-10T11:54:35.736Z,25.72
2022-09-10T11:57:40.244Z,25.85
2022-09-10T12:00:18.394Z,25.97
2022-09-10T12:03:30.736Z,26.04
2022-09-10T12:06:22.269Z,26.14
2022-09-10T12:09:09.340Z,26.23
2022-09-10T12:12:09.076Z,26.35
2022-09-10T12:14:39.942Z,26.38
2022-09-10T12:17:29.946Z,26.22
2022-09-10T12:19:59.001Z,26.24
2022-09-10T12:22:31.769Z,26.37
2022-09-10T12:25:28.338Z,26.43
2022-09-10T12:28:01.526Z,26.44
2022-09-10T12:30:29.126Z,26.44
2022-09-10T12:33:01.870Z,26.47
2022-09-10T12:35:45.976Z,26.47
2022-09-10T12:39:09.179Z,26.44
2022-09-10T12:41:36.108Z,26.40
2022-09-10T12:44:34.407Z,26.46
2022-09-10T12:47:16.469Z,26.52
2022-09-10T12:49:49.506Z,26.46
2022-09-10T12:52:40.732Z,26.37
2022-09-10T12:55:48.910Z,26.33
2022-09-10T12:58:58.961Z,26.30
2022-09-10T13:01:46.376Z,26.35
2022-09-10T13:04:37.201Z,26.43
2022-09-10T13:07:25.118Z,26.41
2022-09-10T13:10:14.943Z,26.33
2022-09-10T13:12:45.052Z,26.29
2022-09-10T13:15:24.053Z,26.33
2022-09-10T13:17:51.406Z,26.39
2022-09-10T13:20:21.207Z,26.44
2022-09-10T13:23:10.108Z,26.50
2022-09-10T13:25:45.881Z,26.44
2022-09-10T13:28:31.335Z,26.33
2022-09-10T13:31:09.103Z,26.22
2022-09-10T13:34:14.100Z,26.13
2022-09-10T13:37:17.415Z,26.08
2022-09-10T13:40:08.851Z,26.10
2022-09-10T13:43:07.645Z,26.04
2022-09-10T13:45:42.052Z,26.04
2022-09-10T13:48:27.514Z,26.10
2022-09-10T13:51:11.162Z,26.18
2022-09-10T13:53:43.818Z,26.26
2022-09-10T13:56:21.564Z,26.34
2022-09-10T13:58:51.597Z,26.40
2022-09-10T14:01:18.610Z,26.46
2022-09-10T14:03:45.559Z,26.48
2022-09-10T14:06:18.296Z,26.55
2022-09-10T14:09:04.762Z,26.57
2022-09-10T14:11:41.304Z,26.61
2022-09-10T14:14:19.234Z,26.68
2022-09-10T14:16:52.623Z,26.76
2022-09-10T14:19:26.384Z,26.80
2022-09-10T14:21:55.719Z,26.79
2022-09-10T14:24:59.764Z,26.83
2022-09-10T14:27:30.989Z,26.80
2022-09-10T14:30:25.924Z,26.69
2022-09-10T14:32:53.219Z,26.66
2022-09-10T14:35:37.113Z,26.65
2022-09-10T14:38:26.470Z,26.59
2022-09-10T14:41:08.465Z,26.52
2022-09-10T14:43:38.976Z,26.43
2022-09-10T14:46:08.259Z,26.33
2022-09-10T14:48:39.452Z,26.22
2022-09-10T14:51:21.946Z,26.19
2022-09-10T14:53:56.984Z,26.05
2022-09-10T14:56:37.983Z,26.01
2022-09-10T14:59:36.339Z,25.90
2022-09-10T15:02:15.530Z,25.82
2022-09-10T15:04:42.453Z,25.74
2022-09-10T15:07:10.140Z,25.73
2022-09-10T15:09:37.012Z,25.70
2022-09-10T15:12:24.336Z,25.63
2022-09-10T15:14:52.088Z,25.56
2022-09-10T15:17:19.688Z,25.54
2022-09-10T15:19:47.242Z,25.51
2022-09-10T15:22:23.669Z,25.48
2022-09-10T15:25:08.987Z,25.47
2022-09-10T15:27:36.335Z,25.43
2022-09-10T15:30:03.479Z,25.38
2022-09-10T15:32:30.765Z,25.36
2022-09-10T15:34:57.646Z,25.32
2022-09-10T15:37:24.578Z,25.27
2022-09-10T15:39:51.669Z,25.22
2022-09-10T15:42:18.659Z,25.17
2022-09-10T15:44:45.532Z,25.10
2022-09-10T15:47:12.415Z,25.05
2022-09-10T15:49:39.319Z,24.97
2022-09-10T15:52:06.224Z,24.98
2022-09-10T15:54:33.895Z,24.93
2022-09-10T15:57:01.204Z,24.89
2022-09-10T15:59:28.526Z,24.83
2022-09-10T16:01:55.459Z,24.78
2022-09-10T16:04:22.947Z,24.71
2022-09-10T16:06:49.871Z,24.65
2022-09-10T16:09:16.943Z,24.58
2022-09-10T16:11:44.457Z,24.44
2022-09-10T16:14:14.679Z,24.20
2022-09-10T16:16:41.883Z,23.86
2022-09-10T16:19:12.059Z,23.66
2022-09-10T16:21:39.296Z,23.54
2022-09-10T16:24:06.962Z,23.51
2022-09-10T16:26:41.605Z,23.50
2022-09-10T16:29:15.907Z,23.37
2022-09-10T16:31:45.489Z,23.24
2022-09-10T16:34:19.047Z,23.22
2022-09-10T16:36:51.508Z,23.23
2022-09-10T16:39:19.867Z,23.26
2022-09-10T16:41:49.088Z,23.26
2022-09-10T16:44:17.779Z,23.25
2022-09-10T16:46:46.552Z,23.25
2022-09-10T16:49:15.064Z,23.22
2022-09-10T16:51:44.196Z,23.22
2022-09-10T16:54:13.538Z,23.18
2022-09-10T16:56:43.933Z,23.15
2022-09-10T16:59:15.734Z,23.08
2022-09-10T17:01:48.407Z,22.86
2022-09-10T17:04:20.646Z,22.59
2022-09-10T17:06:50.780Z,22.45
2022-09-10T17:09:17.963Z,22.37
2022-09-10T17:11:44.852Z,22.27
2022-09-10T17:14:12.368Z,22.09
2022-09-10T17:16:41.564Z,21.85
2022-09-10T17:19:23.231Z,21.67
2022-09-10T17:21:53.437Z,21.62
2022-09-10T17:24:23.401Z,21.57
2022-09-10T17:26:51.055Z,21.64
2022-09-10T17:29:22.237Z,21.68
2022-09-10T17:31:52.029Z,21.69
2022-09-10T17:34:21.341Z,21.61
2022-09-10T17:36:49.081Z,21.61
2022-09-10T17:39:16.890Z,21.70
2022-09-10T17:41:44.065Z,21.76
2022-09-10T17:44:12.148Z,21.80
2022-09-10T17:46:39.443Z,21.79
2022-09-10T17:49:06.688Z,21.82
2022-09-10T17:51:34.962Z,21.84
2022-09-10T17:54:03.270Z,21.80
2022-09-10T17:56:31.300Z,21.78
2022-09-10T17:59:01.675Z,21.77
2022-09-10T18:01:38.828Z,21.79
2022-09-10T18:04:12.660Z,21.81
2022-09-10T18:06:40.747Z,21.83
2022-09-10T18:09:08.660Z,21.86
2022-09-10T18:11:39.528Z,21.86
2022-09-10T18:14:07.209Z,21.85
2022-09-10T18:16:36.285Z,21.90
2022-09-10T18:19:13.728Z,21.91
2022-09-10T18:21:42.049Z,21.91
2022-09-10T18:24:19.022Z,21.91
2022-09-10T18:26:48.288Z,21.90
2022-09-10T18:29:27.740Z,21.91
2022-09-10T18:31:57.935Z,21.90
2022-09-10T18:34:28.603Z,21.89
2022-09-10T18:36:58.570Z,21.82
2022-09-10T18:39:27.629Z,21.85
2022-09-10T18:41:55.086Z,21.84
2022-09-10T18:44:27.205Z,21.83
2022-09-10T18:46:54.466Z,21.83
2022-09-10T18:49:24.379Z,21.81
2022-09-10T18:51:52.408Z,21.82
2022-09-10T18:54:21.760Z,21.80
2022-09-10T18:56:49.585Z,21.77
2022-09-10T18:59:20.221Z,21.75
2022-09-10T19:01:49.337Z,21.72
2022-09-10T19:04:20.128Z,21.70
2022-09-10T19:06:48.529Z,21.66
2022-09-10T19:09:19.546Z,21.52
2022-09-10T19:11:49.609Z,21.44
2022-09-10T19:14:29.866Z,21.38
2022-09-10T19:16:58.637Z,21.29
2022-09-10T19:19:31.730Z,21.24
2022-09-10T19:22:03.317Z,21.24
2022-09-10T19:24:53.362Z,21.19
2022-09-10T19:27:17.658Z,21.26
2022-09-10T19:29:47.157Z,21.28
2022-09-10T19:32:15.140Z,21.28
2022-09-10T19:34:42.691Z,21.28
2022-09-10T19:37:09.770Z,21.27
2022-09-10T19:39:36.739Z,21.29
2022-09-10T19:42:04.178Z,21.27
2022-09-10T19:44:31.047Z,21.25
2022-09-10T19:46:58.674Z,21.23
2022-09-10T19:49:25.590Z,21.23
2022-09-10T19:51:52.506Z,21.19
2022-09-10T19:54:19.422Z,21.08
2022-09-10T19:56:46.309Z,21.04
2022-09-10T19:59:14.465Z,21.00
2022-09-10T20:01:43.617Z,20.99
2022-09-10T20:04:12.624Z,20.90
2022-09-10T20:06:40.298Z,20.82
2022-09-10T20:09:09.791Z,20.71
2022-09-10T20:11:37.186Z,20.55
2022-09-10T20:14:10.729Z,20.45
2022-09-10T20:16:42.260Z,20.37
2022-09-10T20:19:11.565Z,20.25
2022-09-10T20:21:38.526Z,20.19
2022-09-10T20:24:07.285Z,20.18
2022-09-10T20:26:43.893Z,20.15
2022-09-10T20:29:17.834Z,20.10
2022-09-10T20:31:46.213Z,20.07
2022-09-10T20:34:19.723Z,20.07
2022-09-10T20:36:50.252Z,20.07
2022-09-10T20:39:19.774Z,19.95
2022-09-10T20:41:46.997Z,19.87
2022-09-10T20:44:16.508Z,19.80
2022-09-10T20:46:44.498Z,19.73
2022-09-10T20:49:13.810Z,19.73
2022-09-10T20:51:41.364Z,19.77
2022-09-10T20:54:13.907Z,19.81
2022-09-10T20:56:41.424Z,19.88
2022-09-10T20:59:08.295Z,19.92
2022-09-10T21:01:35.223Z,19.95
2022-09-10T21:04:04.103Z,19.97
2022-09-10T21:06:33.258Z,19.99
2022-09-10T21:09:02.063Z,19.99
2022-09-10T21:11:32.418Z,19.98
2022-09-10T21:14:01.904Z,19.89
2022-09-10T21:16:37.981Z,19.88
2022-09-10T21:19:09.396Z,19.85
2022-09-10T21:21:39.330Z,19.86
2022-09-10T21:24:16.640Z,19.88
2022-09-10T21:26:44.396Z,19.87
2022-09-10T21:29:17.768Z,19.91
2022-09-10T21:31:45.563Z,19.88
2022-09-10T21:34:13.679Z,19.83
2022-09-10T21:36:41.882Z,19.79
2022-09-10T21:39:14.368Z,19.72
2022-09-10T21:41:47.609Z,19.69
2022-09-10T21:44:18.394Z,19.74
2022-09-10T21:46:46.677Z,19.79
2022-09-10T21:49:14.321Z,19.78
2022-09-10T21:51:41.912Z,19.87
2022-09-10T21:54:20.435Z,19.82
2022-09-10T21:56:48.688Z,19.80
2022-09-10T21:59:16.121Z,19.83
2022-09-10T22:01:45.410Z,19.86
2022-09-10T22:04:13.727Z,19.84
2022-09-10T22:06:40.858Z,19.85
2022-09-10T22:09:14.859Z,19.87
2022-09-10T22:11:50.157Z,19.89
2022-09-10T22:14:20.883Z,19.96
2022-09-10T22:16:48.251Z,19.93
2022-09-10T22:19:18.895Z,19.94
2022-09-10T22:21:47.080Z,19.97
2022-09-10T22:24:19.226Z,19.97
2022-09-10T22:26:47.341Z,19.95
2022-09-10T22:29:19.997Z,19.94
2022-09-10T22:31:47.918Z,19.91
2022-09-10T22:34:16.536Z,19.91
2022-09-10T22:36:46.137Z,19.93
2022-09-10T22:39:21.288Z,19.87
2022-09-10T22:41:50.078Z,19.77
2022-09-10T22:44:18.044Z,19.72
2022-09-10T22:46:44.967Z,19.68
2022-09-10T22:49:11.900Z,19.70
2022-09-10T22:51:43.336Z,19.66
2022-09-10T22:54:11.299Z,19.60
2022-09-10T22:56:38.372Z,19.64
2022-09-10T22:59:06.571Z,19.68
2022-09-10T23:01:37.558Z,19.75
2022-09-10T23:04:06.327Z,19.74
2022-09-10T23:06:35.479Z,19.71
2022-09-10T23:09:11.088Z,19.66
2022-09-10T23:11:39.196Z,19.65
2022-09-10T23:14:10.785Z,19.59
2022-09-10T23:16:41.901Z,19.61
2022-09-10T23:19:15.653Z,19.63
2022-09-10T23:21:46.483Z,19.64
2022-09-10T23:24:17.166Z,19.64
2022-09-10T23:26:44.782Z,19.63
2022-09-10T23:29:12.523Z,19.63
2022-09-10T23:31:40.935Z,19.66
2022-09-10T23:34:12.995Z,19.68
2022-09-10T23:36:42.822Z,19.69
2022-09-10T23:39:14.823Z,19.68
2022-09-10T23:41:42.202Z,19.69
2022-09-10T23:44:09.855Z,19.67
2022-09-10T23:46:37.567Z,19.70
2022-09-10T23:49:05.523Z,19.72
2022-09-10T23:51:32.383Z,19.77
2022-09-10T23:53:59.569Z,19.81
2022-09-10T23:56:28.331Z,19.88
2022-09-10T23:58:56.416Z,19.99
